createdAt,value
2023-04-16T00:01:13.567Z,6.03
2023-04-16T00:04:01.136Z,6.01
2023-04-16T00:06:50.628Z,5.94
2023-04-16T00:09:37.844Z,5.90
2023-04-16T00:12:25.549Z,5.87
2023-04-16T00:15:12.807Z,5.87
2023-04-16T00:18:00.528Z,5.88
2023-04-16T00:20:48.581Z,5.88
2023-04-16T00:23:36.549Z,5.83
2023-04-16T00:26:23.763Z,5.77
2023-04-16T00:29:11.991Z,5.73
2023-04-16T00:31:59.240Z,5.68
2023-04-16T00:34:46.927Z,5.68
2023-04-16T00:37:34.221Z,5.67
2023-04-16T00:40:21.824Z,5.67
2023-04-16T00:43:09.304Z,5.65
2023-04-16T00:45:56.967Z,5.59
2023-04-16T00:48:45.640Z,5.59
2023-04-16T00:51:36.799Z,5.59
2023-04-16T00:54:25.465Z,5.60
2023-04-16T00:57:14.523Z,5.62
2023-04-16T01:00:09.991Z,5.58
2023-04-16T01:06:23.436Z,5.49
2023-04-16T01:09:13.050Z,5.46
2023-04-16T01:12:02.186Z,5.47
2023-04-16T01:14:51.351Z,5.49
2023-04-16T01:17:40.496Z,5.52
2023-04-16T01:20:29.651Z,5.52
2023-04-16T01:23:19.667Z,5.52
2023-04-16T01:26:08.605Z,5.51
2023-04-16T01:28:57.574Z,5.46
2023-04-16T01:31:46.964Z,5.45
2023-04-16T01:34:48.025Z,5.41
2023-04-16T01:37:37.234Z,5.41
2023-04-16T01:40:26.280Z,5.40
2023-04-16T01:43:15.820Z,5.37
2023-04-16T01:46:18.688Z,5.33
2023-04-16T01:49:08.000Z,5.25
2023-04-16T01:51:57.709Z,5.17
2023-04-16T01:54:46.780Z,5.10
2023-04-16T01:57:35.871Z,5.02
2023-04-16T02:00:25.214Z,4.99
2023-04-16T02:03:17.815Z,4.95
2023-04-16T02:06:06.761Z,4.90
2023-04-16T02:08:56.208Z,4.89
2023-04-16T02:11:45.123Z,4.89
2023-04-16T02:14:34.240Z,4.88
2023-04-16T02:17:23.743Z,4.88
2023-04-16T02:20:13.885Z,4.90
2023-04-16T02:23:15.044Z,4.92
2023-04-16T02:26:03.973Z,4.93
2023-04-16T02:28:52.932Z,4.94
2023-04-16T02:31:44.994Z,4.95
2023-04-16T02:34:34.751Z,4.93
2023-04-16T02:37:23.681Z,4.94
2023-04-16T02:40:12.476Z,4.92
2023-04-16T02:43:01.735Z,4.92
2023-04-16T02:45:50.421Z,4.93
2023-04-16T02:48:39.194Z,4.94
2023-04-16T02:51:27.805Z,4.95
2023-04-16T02:54:16.735Z,4.94
2023-04-16T02:57:06.224Z,4.93
2023-04-16T02:59:55.074Z,4.92
2023-04-16T03:02:44.115Z,4.88
2023-04-16T03:05:33.025Z,4.85
2023-04-16T03:08:21.757Z,4.82
2023-04-16T03:11:10.676Z,4.80
2023-04-16T03:13:59.582Z,4.77
2023-04-16T03:16:48.518Z,4.71
2023-04-16T03:19:37.308Z,4.63
2023-04-16T03:22:26.436Z,4.55
2023-04-16T03:25:15.105Z,4.52
2023-04-16T03:28:04.176Z,4.50
2023-04-16T03:30:53.727Z,4.51
2023-04-16T03:33:42.755Z,4.51
2023-04-16T03:36:32.603Z,4.53
2023-04-16T03:39:21.628Z,4.52
2023-04-16T03:42:10.368Z,4.51
2023-04-16T03:44:59.563Z,4.52
2023-04-16T03:47:52.612Z,4.50
2023-04-16T03:50:48.116Z,4.45
2023-04-16T03:53:37.773Z,4.45
2023-04-16T03:56:26.844Z,4.49
2023-04-16T03:59:15.899Z,4.54
2023-04-16T04:02:06.327Z,4.58
2023-04-16T04:04:55.334Z,4.63
2023-04-16T04:07:45.409Z,4.62
2023-04-16T04:10:36.228Z,4.60
2023-04-16T04:13:26.513Z,4.58
2023-04-16T04:16:15.511Z,4.55
2023-04-16T04:19:06.147Z,4.53
2023-04-16T04:21:55.434Z,4.52
2023-04-16T04:24:44.319Z,4.53
2023-04-16T04:27:33.080Z,4.55
2023-04-16T04:30:21.928Z,4.57
2023-04-16T04:33:11.128Z,4.57
2023-04-16T04:36:00.317Z,4.58
2023-04-16T04:38:49.702Z,4.56
2023-04-16T04:41:39.451Z,4.60
2023-04-16T04:44:28.251Z,4.66
2023-04-16T04:47:17.270Z,4.75
2023-04-16T04:50:06.629Z,4.80
2023-04-16T04:52:55.892Z,4.83
2023-04-16T04:55:44.821Z,4.86
2023-04-16T04:58:33.643Z,4.91
2023-04-16T05:01:22.322Z,4.90
2023-04-16T05:04:11.345Z,4.89
2023-04-16T05:07:00.166Z,4.89
2023-04-16T05:09:49.000Z,4.92
2023-04-16T05:12:37.689Z,4.92
2023-04-16T05:15:26.613Z,5.00
2023-04-16T05:18:15.776Z,5.07
2023-04-16T05:21:04.841Z,5.14
2023-04-16T05:23:54.382Z,5.25
2023-04-16T05:26:43.309Z,5.38
2023-04-16T05:29:32.031Z,5.44
2023-04-16T05:32:20.955Z,5.43
2023-04-16T05:35:09.998Z,5.42
2023-04-16T05:37:58.720Z,5.44
2023-04-16T05:40:47.483Z,5.51
2023-04-16T05:43:36.128Z,5.49
2023-04-16T05:46:24.918Z,5.45
2023-04-16T05:49:14.512Z,5.49
2023-04-16T05:52:06.335Z,5.55
2023-04-16T05:54:54.976Z,5.55
2023-04-16T05:57:43.648Z,5.54
2023-04-16T06:00:34.816Z,5.53
2023-04-16T06:03:23.491Z,5.58
2023-04-16T06:06:12.373Z,5.64
2023-04-16T06:09:01.000Z,5.70
2023-04-16T06:11:50.605Z,5.78
2023-04-16T06:14:39.247Z,5.85
2023-04-16T06:17:28.251Z,5.91
2023-04-16T06:20:17.012Z,5.92
2023-04-16T06:23:05.606Z,5.96
2023-04-16T06:25:54.575Z,6.05
2023-04-16T06:28:43.546Z,6.11
2023-04-16T06:31:32.315Z,6.12
2023-04-16T06:34:21.333Z,6.14
2023-04-16T06:37:10.820Z,6.20
2023-04-16T06:39:59.513Z,6.26
2023-04-16T06:42:48.463Z,6.35
2023-04-16T06:45:37.436Z,6.33
2023-04-16T06:48:26.376Z,6.37
2023-04-16T06:51:15.612Z,6.39
2023-04-16T06:54:04.292Z,6.43
2023-04-16T06:56:53.293Z,6.45
2023-04-16T06:59:42.209Z,6.44
2023-04-16T07:02:31.385Z,6.40
2023-04-16T07:05:20.110Z,6.38
2023-04-16T07:08:08.865Z,6.41
2023-04-16T07:10:57.567Z,6.40
2023-04-16T07:13:46.581Z,6.47
2023-04-16T07:16:35.381Z,6.54
2023-04-16T07:19:24.241Z,6.54
2023-04-16T07:22:13.383Z,6.67
2023-04-16T07:25:02.372Z,6.82
2023-04-16T07:27:51.926Z,6.96
2023-04-16T07:30:41.182Z,7.07
2023-04-16T07:33:30.030Z,7.17
2023-04-16T07:36:18.897Z,7.31
2023-04-16T07:39:07.874Z,7.43
2023-04-16T07:41:56.966Z,7.47
2023-04-16T07:44:45.696Z,7.54
2023-04-16T07:47:34.359Z,7.54
2023-04-16T07:50:23.161Z,7.63
2023-04-16T07:53:12.313Z,7.75
2023-04-16T07:56:01.053Z,7.87
2023-04-16T07:58:50.064Z,8.02
2023-04-16T08:01:38.966Z,8.18
2023-04-16T08:04:27.942Z,8.25
2023-04-16T08:07:17.140Z,8.43
2023-04-16T08:10:06.744Z,8.61
2023-04-16T08:12:55.791Z,8.71
2023-04-16T08:15:44.742Z,8.65
2023-04-16T08:18:33.352Z,8.63
2023-04-16T08:21:22.697Z,8.65
2023-04-16T08:24:11.971Z,8.66
2023-04-16T08:27:11.565Z,8.68
2023-04-16T08:30:08.333Z,8.90
2023-04-16T08:32:57.151Z,8.95
2023-04-16T08:35:45.859Z,8.91
2023-04-16T08:38:34.503Z,8.86
2023-04-16T08:41:24.921Z,8.86
2023-04-16T08:44:28.410Z,8.77
2023-04-16T08:47:17.742Z,8.63
2023-04-16T08:50:07.358Z,8.61
2023-04-16T08:53:00.775Z,8.74
2023-04-16T08:55:51.989Z,8.89
2023-04-16T08:58:41.894Z,9.07
2023-04-16T09:01:31.275Z,9.36
2023-04-16T09:04:21.322Z,9.83
2023-04-16T09:07:10.868Z,10.21
2023-04-16T09:10:00.623Z,10.52
2023-04-16T09:12:50.675Z,10.72
2023-04-16T09:15:39.810Z,10.75
2023-04-16T09:18:28.793Z,10.45
2023-04-16T09:21:17.442Z,10.28
2023-04-16T09:33:25.226Z,10.16
2023-04-16T09:36:14.216Z,10.20
2023-04-16T09:39:03.946Z,10.31
2023-04-16T09:41:54.785Z,10.32
2023-04-16T09:44:43.930Z,10.40
2023-04-16T09:47:41.500Z,10.40
2023-04-16T09:50:30.805Z,10.39
2023-04-16T09:53:30.819Z,10.52
2023-04-16T09:56:24.967Z,10.64
2023-04-16T09:59:18.132Z,10.85
2023-04-16T10:02:14.669Z,11.04
2023-04-16T10:05:05.150Z,11.09
2023-04-16T10:07:59.617Z,11.06
2023-04-16T10:10:48.680Z,11.21
2023-04-16T10:13:37.464Z,11.07
2023-04-16T10:16:26.834Z,10.99
2023-04-16T10:19:16.568Z,11.24
2023-04-16T10:22:05.676Z,11.53
2023-04-16T10:24:55.765Z,11.80
2023-04-16T10:27:44.807Z,11.94
2023-04-16T10:39:53.153Z,12.27
2023-04-16T10:42:42.035Z,12.12
2023-04-16T10:45:32.926Z,12.09
2023-04-16T10:48:23.901Z,12.17
2023-04-16T10:51:34.645Z,12.30
2023-04-16T10:54:26.476Z,12.45
2023-04-16T10:57:17.891Z,12.40
2023-04-16T11:00:22.824Z,12.49
2023-04-16T11:03:12.083Z,12.69
2023-04-16T11:06:11.984Z,12.78
2023-04-16T11:09:03.057Z,12.74
2023-04-16T11:11:51.912Z,12.70
2023-04-16T11:14:41.617Z,12.66
2023-04-16T11:17:39.173Z,12.81
2023-04-16T11:20:28.801Z,13.18
2023-04-16T11:23:18.151Z,13.30
2023-04-16T11:26:20.533Z,13.44
2023-04-16T11:29:18.555Z,13.48
2023-04-16T11:32:07.915Z,13.48
2023-04-16T11:34:56.909Z,13.73
2023-04-16T11:37:47.156Z,13.82
2023-04-16T11:40:36.507Z,13.82
2023-04-16T11:43:26.856Z,13.75
2023-04-16T11:46:26.893Z,13.75
2023-04-16T11:49:17.832Z,13.92
2023-04-16T11:52:08.076Z,13.84
2023-04-16T11:54:59.965Z,13.86
2023-04-16T11:57:49.184Z,14.05
2023-04-16T12:00:39.887Z,14.15
2023-04-16T12:03:46.768Z,14.27
2023-04-16T12:06:36.263Z,14.32
2023-04-16T12:09:26.282Z,14.60
2023-04-16T12:12:32.316Z,14.79
2023-04-16T12:15:21.613Z,14.67
2023-04-16T12:18:10.564Z,14.83
2023-04-16T12:20:59.466Z,15.02
2023-04-16T12:23:53.865Z,15.35
2023-04-16T12:26:48.858Z,15.63
2023-04-16T12:29:38.882Z,15.76
2023-04-16T12:39:18.967Z,15.26
2023-04-16T12:42:09.960Z,14.83
2023-04-16T12:44:58.820Z,14.70
2023-04-16T12:47:47.818Z,14.53
2023-04-16T12:50:36.994Z,14.26
2023-04-16T12:53:26.220Z,14.16
2023-04-16T12:56:15.666Z,14.21
2023-04-16T12:59:05.030Z,14.47
2023-04-16T13:01:53.992Z,14.68
2023-04-16T13:04:43.056Z,14.73
2023-04-16T13:07:34.254Z,14.77
2023-04-16T13:10:23.604Z,14.82
2023-04-16T13:13:12.611Z,14.99
2023-04-16T13:16:04.072Z,15.19
2023-04-16T13:18:53.425Z,15.33
2023-04-16T13:21:42.028Z,15.61
2023-04-16T13:24:30.888Z,15.61
2023-04-16T13:27:20.273Z,15.65
2023-04-16T13:30:09.758Z,15.79
2023-04-16T13:33:00.101Z,15.65
2023-04-16T13:35:49.700Z,15.29
2023-04-16T13:38:39.517Z,14.91
2023-04-16T13:41:28.240Z,14.70
2023-04-16T13:44:16.993Z,14.48
2023-04-16T13:47:06.088Z,14.24
2023-04-16T13:49:55.113Z,14.13
2023-04-16T13:52:44.092Z,14.08
2023-04-16T13:55:32.909Z,14.03
2023-04-16T13:58:21.991Z,14.06
2023-04-16T14:01:11.019Z,14.19
2023-04-16T14:04:06.446Z,14.30
2023-04-16T14:06:55.723Z,14.28
2023-04-16T14:09:44.607Z,14.24
2023-04-16T14:12:33.330Z,14.32
2023-04-16T14:15:22.325Z,14.46
2023-04-16T14:18:11.261Z,14.65
2023-04-16T14:21:02.093Z,14.86
2023-04-16T14:23:51.382Z,15.09
2023-04-16T14:26:40.076Z,15.00
2023-04-16T14:29:29.079Z,14.83
2023-04-16T14:32:18.834Z,14.58
2023-04-16T14:35:08.355Z,14.33
2023-04-16T14:37:57.029Z,14.14
2023-04-16T14:40:45.942Z,13.95
2023-04-16T14:43:35.904Z,13.77
2023-04-16T14:46:25.076Z,13.60
2023-04-16T14:49:14.640Z,13.48
2023-04-16T14:52:05.631Z,13.40
2023-04-16T14:54:55.382Z,13.42
2023-04-16T14:57:44.298Z,13.59
2023-04-16T15:00:35.181Z,13.75
2023-04-16T15:03:24.164Z,13.90
2023-04-16T15:06:13.881Z,14.00
2023-04-16T15:09:03.907Z,14.07
2023-04-16T15:11:53.058Z,14.07
2023-04-16T15:14:43.210Z,14.11
2023-04-16T15:17:32.240Z,14.10
2023-04-16T15:20:21.546Z,14.07
2023-04-16T15:23:11.170Z,14.02
2023-04-16T15:26:00.284Z,13.98
2023-04-16T15:28:49.414Z,13.98
2023-04-16T15:31:38.614Z,13.96
2023-04-16T15:34:28.128Z,13.91
2023-04-16T15:37:17.113Z,13.91
2023-04-16T15:40:09.595Z,13.89
2023-04-16T15:42:58.850Z,13.83
2023-04-16T15:45:47.941Z,13.78
2023-04-16T15:48:37.027Z,13.76
2023-04-16T15:51:26.823Z,13.77
2023-04-16T15:54:15.845Z,13.77
2023-04-16T15:57:04.933Z,13.70
2023-04-16T16:00:06.337Z,13.62
2023-04-16T16:02:57.391Z,13.53
2023-04-16T16:05:48.015Z,13.47
2023-04-16T16:08:38.584Z,13.43
2023-04-16T16:11:27.621Z,13.38
2023-04-16T16:14:18.665Z,13.34
2023-04-16T16:17:07.660Z,13.26
2023-04-16T16:19:57.856Z,13.17
2023-04-16T16:22:48.328Z,13.08
2023-04-16T16:25:37.248Z,13.00
2023-04-16T16:28:26.216Z,12.89
2023-04-16T16:31:14.872Z,12.81
2023-04-16T16:34:03.447Z,12.74
2023-04-16T16:36:52.585Z,12.67
2023-04-16T16:39:41.430Z,12.60
2023-04-16T16:42:30.084Z,12.56
2023-04-16T16:45:19.206Z,12.53
2023-04-16T16:48:08.335Z,12.50
2023-04-16T16:50:57.366Z,12.45
2023-04-16T16:53:46.660Z,12.42
2023-04-16T16:56:35.336Z,12.36
2023-04-16T16:59:24.082Z,12.30
2023-04-16T17:02:14.570Z,12.26
2023-04-16T17:05:06.122Z,12.21
2023-04-16T17:07:54.851Z,12.16
2023-04-16T17:10:44.009Z,12.12
2023-04-16T17:13:33.664Z,12.07
2023-04-16T17:16:25.480Z,11.99
2023-04-16T17:19:15.413Z,11.92
2023-04-16T17:22:05.864Z,11.84
2023-04-16T17:24:55.626Z,11.75
2023-04-16T17:27:44.613Z,11.68
2023-04-16T17:30:33.612Z,11.62
2023-04-16T17:33:22.936Z,11.56
2023-04-16T17:36:11.804Z,11.49
2023-04-16T17:39:00.647Z,11.43
2023-04-16T17:41:54.240Z,11.35
2023-04-16T17:44:43.313Z,11.25
2023-04-16T17:47:35.367Z,11.17
2023-04-16T17:50:24.516Z,11.08
2023-04-16T17:53:13.333Z,11.01
2023-04-16T17:56:02.592Z,10.95
2023-04-16T17:58:51.410Z,10.89
2023-04-16T18:01:41.053Z,10.84
2023-04-16T18:04:30.405Z,10.77
2023-04-16T18:07:19.622Z,10.70
2023-04-16T18:10:09.060Z,10.63
2023-04-16T18:12:57.739Z,10.60
2023-04-16T18:15:47.008Z,10.56
2023-04-16T18:18:35.718Z,10.53
2023-04-16T18:21:24.673Z,10.50
2023-04-16T18:24:14.025Z,10.44
2023-04-16T18:27:03.850Z,10.40
2023-04-16T18:29:54.785Z,10.34
2023-04-16T18:33:04.198Z,10.29
2023-04-16T18:35:53.720Z,10.23
2023-04-16T18:38:56.944Z,10.19
2023-04-16T18:41:49.054Z,10.16
2023-04-16T18:44:37.789Z,10.13
2023-04-16T18:47:27.256Z,10.11
2023-04-16T19:04:23.512Z,9.82
2023-04-16T19:07:11.336Z,9.76
2023-04-16T19:10:03.091Z,9.69
2023-04-16T19:12:50.776Z,9.63
2023-04-16T19:15:38.649Z,9.59
2023-04-16T19:18:26.770Z,9.53
2023-04-16T19:21:14.317Z,9.46
2023-04-16T19:24:01.821Z,9.40
2023-04-16T19:26:50.153Z,9.38
2023-04-16T19:29:39.775Z,9.36
2023-04-16T19:32:27.835Z,9.33
2023-04-16T19:35:15.556Z,9.28
2023-04-16T19:38:03.313Z,9.25
2023-04-16T19:40:50.969Z,9.19
2023-04-16T19:43:38.810Z,9.15
2023-04-16T19:46:26.508Z,9.11
2023-04-16T19:49:16.604Z,9.07
2023-04-16T19:52:04.246Z,9.03
2023-04-16T19:54:52.123Z,8.99
2023-04-16T19:57:39.874Z,8.92
2023-04-16T20:00:27.702Z,8.86
2023-04-16T20:03:15.602Z,8.82
2023-04-16T20:06:04.910Z,8.76
2023-04-16T20:08:53.297Z,8.72
2023-04-16T20:11:40.684Z,8.71
2023-04-16T20:14:27.895Z,8.70
2023-04-16T20:17:17.239Z,8.69
2023-04-16T20:20:09.468Z,8.70
2023-04-16T20:22:56.709Z,8.70
2023-04-16T20:25:45.983Z,8.68
2023-04-16T20:28:33.253Z,8.68
2023-04-16T20:31:20.489Z,8.68
2023-04-16T20:34:08.297Z,8.68
2023-04-16T20:36:57.348Z,8.67
2023-04-16T20:39:46.220Z,8.64
2023-04-16T20:42:33.872Z,8.61
2023-04-16T20:45:21.571Z,8.59
2023-04-16T20:48:09.083Z,8.56
2023-04-16T20:51:00.611Z,8.55
2023-04-16T20:53:49.472Z,8.55
2023-04-16T20:56:36.649Z,8.53
2023-04-16T20:59:24.779Z,8.52
2023-04-16T21:02:12.174Z,8.48
2023-04-16T21:04:59.804Z,8.43
2023-04-16T21:07:47.386Z,8.41
2023-04-16T21:10:34.999Z,8.37
2023-04-16T21:13:22.561Z,8.31
2023-04-16T21:16:11.738Z,8.26
2023-04-16T21:18:59.321Z,8.22
2023-04-16T21:21:46.771Z,8.19
2023-04-16T21:24:34.463Z,8.13
2023-04-16T21:27:21.569Z,8.13
2023-04-16T21:30:09.206Z,8.10
2023-04-16T21:32:56.571Z,8.07
2023-04-16T21:35:43.833Z,8.03
2023-04-16T21:38:30.966Z,7.97
2023-04-16T21:41:18.411Z,7.94
2023-04-16T21:44:05.547Z,7.89
2023-04-16T21:46:52.857Z,7.85
2023-04-16T21:49:41.716Z,7.84
2023-04-16T21:52:28.953Z,7.83
2023-04-16T21:55:16.356Z,7.83
2023-04-16T21:58:03.637Z,7.81
2023-04-16T22:00:51.627Z,7.80
2023-04-16T22:03:39.597Z,7.77
2023-04-16T22:06:27.316Z,7.74
2023-04-16T22:09:14.901Z,7.70
2023-04-16T22:12:02.334Z,7.69
2023-04-16T22:17:43.407Z,7.62
2023-04-16T22:20:38.147Z,7.59
2023-04-16T22:23:25.617Z,7.55
2023-04-16T22:26:13.084Z,7.52
2023-04-16T22:29:01.381Z,7.50
2023-04-16T22:31:48.825Z,7.49
2023-04-16T22:34:36.212Z,7.46
2023-04-16T22:37:23.650Z,7.44
2023-04-16T22:40:11.384Z,7.43
2023-04-16T22:42:58.978Z,7.39
2023-04-16T22:45:46.982Z,7.37
2023-04-16T22:48:37.406Z,7.37
2023-04-16T22:51:24.916Z,7.35
2023-04-16T22:54:13.776Z,7.34
2023-04-16T22:57:01.406Z,7.32
2023-04-16T22:59:48.757Z,7.27
2023-04-16T23:02:36.258Z,7.22
2023-04-16T23:05:23.755Z,7.18
2023-04-16T23:08:11.147Z,7.13
2023-04-16T23:10:58.499Z,7.10
2023-04-16T23:13:45.838Z,7.10
2023-04-16T23:16:33.370Z,7.07
2023-04-16T23:19:20.652Z,7.04
2023-04-16T23:22:08.250Z,7.02
2023-04-16T23:24:55.580Z,7.00
2023-04-16T23:27:42.839Z,6.98
2023-04-16T23:30:30.212Z,6.96
2023-04-16T23:33:17.697Z,6.92
2023-04-16T23:36:05.540Z,6.89
2023-04-16T23:38:53.026Z,6.85
2023-04-16T23:41:40.357Z,6.82
2023-04-16T23:44:27.574Z,6.78
2023-04-16T23:47:14.877Z,6.75
2023-04-16T23:50:02.535Z,6.73
2023-04-16T23:52:49.846Z,6.70
2023-04-16T23:55:37.594Z,6.67
2023-04-16T23:58:26.153Z,6.64
